Sikinos — 9HA2865 — position and weather

sailwx.info

Track history (hours):
 
Tides and Currents Weather Stations Pressure Air Temp Water Temp Dewpoint Dewpoint Depression Visibility Wind Speed Wind Dir Waves Ship Positions

Sikinos

Last reported at 2016-May-31 20:08 UTC. Time now 2016-May-31 21:53 UTC.
Position N 38°42' W 009°09'.

Length 90 m; draft 5 m.

Type: Ship (hazmat cat A). MMSI: 256462000.

Date/timePositionNaut miles runAvg speedWind from/ knotsBaromVisibWave heightAir tempDewpointWater temp
2016-May-31 20:08N 38°42' W 009°09'0 0.0
2016-May-31 19:22N 38°42' W 009°09'0 0.0
2016-May-31 18:28N 38°42' W 009°09'0 0.0
2016-May-31 17:29N 38°42' W 009°09'0 0.0
2016-May-31 16:20N 38°42' W 009°09'0 0.0
2016-May-31 04:05N 38°42' W 009°09'0 0.0
2016-May-31 01:25N 38°42' W 009°09'0 0.0
2016-May-30 22:07N 38°42' W 009°09'0 0.0
2016-May-30 10:19N 38°42' W 009°09'0 0.0
2016-May-30 07:32N 38°42' W 009°09'7 6.9
2016-May-30 06:33N 38°41' W 009°18'1010.0
2016-May-30 05:32N 38°35' W 009°29'1010.3
2016-May-30 04:33N 38°34' W 009°42'1110.7
2016-May-30 03:33N 38°33' W 009°55'  
2016-May-27 16:06N 48°10' W 005°19'610.8
2016-May-27 15:34N 48°12' W 005°11'1110.9
2016-May-27 14:34N 48°15' W 004°56'1111.2
2016-May-27 13:33N 48°19' W 004°40'9 8.6
2016-May-27 12:33N 48°23' W 004°28'0 0.0
2016-May-27 11:31N 48°23' W 004°28'0 0.0
2016-May-27 10:28N 48°23' W 004°28'0 0.0
2016-May-27 09:31N 48°23' W 004°28'0 0.0
2016-May-27 08:28N 48°23' W 004°28'0 0.0
2016-May-27 07:28N 48°23' W 004°28'0 0.0
2016-May-27 06:31N 48°23' W 004°28'0 0.0
2016-May-27 05:28N 48°23' W 004°28'4 4.3
2016-May-27 04:33N 48°21' W 004°33'9 9.3
2016-May-27 03:33N 48°17' W 004°46'9 9.3
2016-May-27 02:33N 48°15' W 004°60'10 9.5
2016-May-27 01:32N 48°16' W 005°14'107 5.9
2016-May-26 07:22N 49°43' W 003°40'11 9.2
2016-May-26 06:08N 49°49' W 003°25'810.2
2016-May-26 05:23N 49°53' W 003°14'911.1
2016-May-26 04:33N 49°57' W 003°02'1211.8
2016-May-26 03:32N 50°02' W 002°45'92 9.2
2016-May-25 17:31N 50°27' W 000°26'1111.5
2016-May-25 16:33N 50°29' W 000°09'1111.2
2016-May-25 15:33N 50°32' E 000°08'1110.7
2016-May-25 14:33N 50°35' E 000°24'3811.0
2016-May-25 11:09N 50°57' E 001°13'813.4
2016-May-25 10:34N 51°02' E 001°23'1515.4
2016-May-25 09:34N 51°12' E 001°41'1414.5
2016-May-25 08:34N 51°23' E 001°57'1110.7
2016-May-25 07:34N 51°21' E 002°14'2211.1
2016-May-25 05:33N 51°22' E 002°49'1110.9
2016-May-25 04:33N 51°22' E 003°07'4 0.7
2016-May-24 23:19N 51°21' E 003°12'0 0.0
2016-May-24 20:25N 51°21' E 003°12'0 0.0
2016-May-24 18:19N 51°21' E 003°12'0 0.0
2016-May-24 16:19N 51°21' E 003°12'0 0.0
2016-May-24 14:16N 51°21' E 003°12'0 0.0
2016-May-24 13:28N 51°21' E 003°12'0 0.0
2016-May-24 12:19N 51°21' E 003°12'0 0.0
2016-May-24 11:13N 51°21' E 003°12'0 0.0
2016-May-24 09:19N 51°21' E 003°12'0 0.0
2016-May-24 08:33N 51°21' E 003°12'0 0.0
2016-May-24 07:07N 51°21' E 003°12'0 0.0
2016-May-24 06:16N 51°21' E 003°12'0 0.0
2016-May-24 04:22N 51°21' E 003°12'0 0.0
2016-May-23 14:34N 51°21' E 003°12'8 8.1
2016-May-23 13:33N 51°23' E 002°60'1010.1
2016-May-23 12:34N 51°22' E 002°44'1410.4
2016-May-23 11:15N 51°36' E 002°41'49 8.5
2016-May-23 05:25N 52°03' E 003°48'8 8.8
2016-May-23 04:33N 52°01' E 003°60'9 9.0
2016-May-23 03:33N 51°56' E 004°13'5 4.7
2016-May-23 02:27N 51°53' E 004°19'0 0.0
2016-May-23 01:27N 51°53' E 004°19'0 0.0
2016-May-23 00:27N 51°53' E 004°19'0 0.0
2016-May-22 23:27N 51°53' E 004°19'0 0.0
2016-May-22 22:09N 51°53' E 004°19'0 0.0
2016-May-22 21:33N 51°53' E 004°19'0 0.0
2016-May-22 15:33N 51°53' E 004°19'0 0.0
2016-May-22 14:21N 51°53' E 004°19'0 0.0
2016-May-22 11:15N 51°53' E 004°19'0 0.0
2016-May-22 10:33N 51°53' E 004°19'0 0.0
2016-May-22 08:33N 51°53' E 004°19'0 0.0
2016-May-22 07:33N 51°53' E 004°19'0 0.0
2016-May-22 06:33N 51°53' E 004°19'4 4.5
2016-May-22 05:33N 51°56' E 004°13'3 3.5
2016-May-22 04:33N 51°57' E 004°09'3 2.5
2016-May-22 03:28N 51°56' E 004°12'0 0.0
2016-May-22 02:31N 51°56' E 004°12'0 0.0
2016-May-22 01:31N 51°56' E 004°12'0 0.0
2016-May-22 00:31N 51°56' E 004°12'0 0.0
2016-May-21 23:28N 51°56' E 004°12'0 0.0
2016-May-21 22:19N 51°56' E 004°12'0 0.0
2016-May-21 21:31N 51°56' E 004°12'0 0.0
2016-May-21 20:28N 51°56' E 004°12'  
Track history (hours):
 
Tides and Currents Weather Stations Pressure Air Temp Water Temp Dewpoint Dewpoint Depression Visibility Wind Speed Wind Dir Waves Ship Positions

Sikinos

Last reported at 2016-May-31 20:08 UTC. Time now 2016-May-31 21:53 UTC.
Position N 38°42' W 009°09'.

Length 90 m; draft 5 m.

Type: Ship (hazmat cat A). MMSI: 256462000.

Date/timePositionNaut miles runAvg speedWind from/ knotsBaromVisibWave heightAir tempDewpointWater temp
2016-May-31 20:08N 38°42' W 009°09'0 0.0
2016-May-31 19:22N 38°42' W 009°09'0 0.0
2016-May-31 18:28N 38°42' W 009°09'0 0.0
2016-May-31 17:29N 38°42' W 009°09'0 0.0
2016-May-31 16:20N 38°42' W 009°09'0 0.0
2016-May-31 04:05N 38°42' W 009°09'0 0.0
2016-May-31 01:25N 38°42' W 009°09'0 0.0
2016-May-30 22:07N 38°42' W 009°09'0 0.0
2016-May-30 10:19N 38°42' W 009°09'0 0.0
2016-May-30 07:32N 38°42' W 009°09'7 6.9
2016-May-30 06:33N 38°41' W 009°18'1010.0
2016-May-30 05:32N 38°35' W 009°29'1010.3
2016-May-30 04:33N 38°34' W 009°42'1110.7
2016-May-30 03:33N 38°33' W 009°55'  
2016-May-27 16:06N 48°10' W 005°19'610.8
2016-May-27 15:34N 48°12' W 005°11'1110.9
2016-May-27 14:34N 48°15' W 004°56'1111.2
2016-May-27 13:33N 48°19' W 004°40'9 8.6
2016-May-27 12:33N 48°23' W 004°28'0 0.0
2016-May-27 11:31N 48°23' W 004°28'0 0.0
2016-May-27 10:28N 48°23' W 004°28'0 0.0
2016-May-27 09:31N 48°23' W 004°28'0 0.0
2016-May-27 08:28N 48°23' W 004°28'0 0.0
2016-May-27 07:28N 48°23' W 004°28'0 0.0
2016-May-27 06:31N 48°23' W 004°28'0 0.0
2016-May-27 05:28N 48°23' W 004°28'4 4.3
2016-May-27 04:33N 48°21' W 004°33'9 9.3
2016-May-27 03:33N 48°17' W 004°46'9 9.3
2016-May-27 02:33N 48°15' W 004°60'10 9.5
2016-May-27 01:32N 48°16' W 005°14'107 5.9
2016-May-26 07:22N 49°43' W 003°40'11 9.2
2016-May-26 06:08N 49°49' W 003°25'810.2
2016-May-26 05:23N 49°53' W 003°14'911.1
2016-May-26 04:33N 49°57' W 003°02'1211.8
2016-May-26 03:32N 50°02' W 002°45'92 9.2
2016-May-25 17:31N 50°27' W 000°26'1111.5
2016-May-25 16:33N 50°29' W 000°09'1111.2
2016-May-25 15:33N 50°32' E 000°08'1110.7
2016-May-25 14:33N 50°35' E 000°24'3811.0
2016-May-25 11:09N 50°57' E 001°13'813.4
2016-May-25 10:34N 51°02' E 001°23'1515.4
2016-May-25 09:34N 51°12' E 001°41'1414.5
2016-May-25 08:34N 51°23' E 001°57'1110.7
2016-May-25 07:34N 51°21' E 002°14'2211.1
2016-May-25 05:33N 51°22' E 002°49'1110.9
2016-May-25 04:33N 51°22' E 003°07'4 0.7
2016-May-24 23:19N 51°21' E 003°12'0 0.0
2016-May-24 20:25N 51°21' E 003°12'0 0.0
2016-May-24 18:19N 51°21' E 003°12'0 0.0
2016-May-24 16:19N 51°21' E 003°12'0 0.0
2016-May-24 14:16N 51°21' E 003°12'0 0.0
2016-May-24 13:28N 51°21' E 003°12'0 0.0
2016-May-24 12:19N 51°21' E 003°12'0 0.0
2016-May-24 11:13N 51°21' E 003°12'0 0.0
2016-May-24 09:19N 51°21' E 003°12'0 0.0
2016-May-24 08:33N 51°21' E 003°12'0 0.0
2016-May-24 07:07N 51°21' E 003°12'0 0.0
2016-May-24 06:16N 51°21' E 003°12'0 0.0
2016-May-24 04:22N 51°21' E 003°12'0 0.0
2016-May-23 14:34N 51°21' E 003°12'8 8.1
2016-May-23 13:33N 51°23' E 002°60'1010.1
2016-May-23 12:34N 51°22' E 002°44'1410.4
2016-May-23 11:15N 51°36' E 002°41'49 8.5
2016-May-23 05:25N 52°03' E 003°48'8 8.8
2016-May-23 04:33N 52°01' E 003°60'9 9.0
2016-May-23 03:33N 51°56' E 004°13'5 4.7
2016-May-23 02:27N 51°53' E 004°19'0 0.0
2016-May-23 01:27N 51°53' E 004°19'0 0.0
2016-May-23 00:27N 51°53' E 004°19'0 0.0
2016-May-22 23:27N 51°53' E 004°19'0 0.0
2016-May-22 22:09N 51°53' E 004°19'0 0.0
2016-May-22 21:33N 51°53' E 004°19'0 0.0
2016-May-22 15:33N 51°53' E 004°19'0 0.0
2016-May-22 14:21N 51°53' E 004°19'0 0.0
2016-May-22 11:15N 51°53' E 004°19'0 0.0
2016-May-22 10:33N 51°53' E 004°19'0 0.0
2016-May-22 08:33N 51°53' E 004°19'0 0.0
2016-May-22 07:33N 51°53' E 004°19'0 0.0
2016-May-22 06:33N 51°53' E 004°19'4 4.5
2016-May-22 05:33N 51°56' E 004°13'3 3.5
2016-May-22 04:33N 51°57' E 004°09'3 2.5
2016-May-22 03:28N 51°56' E 004°12'0 0.0
2016-May-22 02:31N 51°56' E 004°12'0 0.0
2016-May-22 01:31N 51°56' E 004°12'0 0.0
2016-May-22 00:31N 51°56' E 004°12'0 0.0
2016-May-21 23:28N 51°56' E 004°12'0 0.0
2016-May-21 22:19N 51°56' E 004°12'0 0.0
2016-May-21 21:31N 51°56' E 004°12'0 0.0
2016-May-21 20:28N 51°56' E 004°12'  

Dump ship's entire track history